Time,TemperatureF,DewpointF,PressureIn,WindDirection,WindDirectionDegrees,WindSpeedMPH,WindSpeedGustMPH,Humidity,HourlyPrecipIn,Conditions,Clouds,dailyrainin,SoftwareType,DateUTC
2016-07-25 00:04:00,84.0,75.0,29.88,East,98,0.0,-999.0,75,-99.99,,,-99.99,,2016-07-25 04:04:00,
2016-07-25 00:14:00,84.0,76.0,29.88,ESE,110,-999.9,-999.0,76,-99.99,,,-99.99,,2016-07-25 04:14:00,
2016-07-25 00:23:00,83.0,75.0,29.88,East,80,0.0,-999.0,77,-99.99,,,-99.99,,2016-07-25 04:23:00,
2016-07-25 00:33:00,83.0,75.0,29.88,North,-9999,-999.9,-999.0,78,-99.99,,,-99.99,,2016-07-25 04:33:00,
2016-07-25 00:54:00,82.0,75.0,29.89,SE,131,0.0,-999.0,80,-99.99,,,-99.99,,2016-07-25 04:54:00,
2016-07-25 01:34:00,81.0,75.0,29.89,East,95,0.0,-999.0,82,-99.99,,,-99.99,,2016-07-25 05:34:00,
2016-07-25 01:44:00,82.0,76.0,29.89,East,95,0.0,-999.0,82,-99.99,,,-99.99,,2016-07-25 05:44:00,
2016-07-25 01:54:00,82.0,76.0,29.90,East,95,0.0,-999.0,82,-99.99,,,-99.99,,2016-07-25 05:54:00,
2016-07-25 02:16:00,82.0,76.0,29.90,East,95,0.0,-999.0,81,-99.99,,,-99.99,,2016-07-25 06:16:00,
2016-07-25 02:26:00,82.0,76.0,29.90,East,95,1.0,2.0,81,-99.99,,,-99.99,,2016-07-25 06:26:00,
2016-07-25 02:43:00,82.0,76.0,29.91,East,95,0.0,2.0,82,-99.99,,,-99.99,,2016-07-25 06:43:00,
2016-07-25 02:49:00,82.0,76.0,29.91,SE,127,0.0,3.0,81,-99.99,,,-99.99,,2016-07-25 06:49:00,
2016-07-25 03:00:00,82.0,76.0,29.91,SE,129,1.0,2.0,81,-99.99,,,-99.99,,2016-07-25 07:00:00,
2016-07-25 03:47:00,82.0,76.0,29.91,SSE,161,1.0,3.0,82,-99.99,,,-99.99,,2016-07-25 07:47:00,
2016-07-25 03:56:00,81.0,75.0,29.91,NE,41,2.0,3.0,83,-99.99,,,-99.99,,2016-07-25 07:56:00,
2016-07-25 04:08:00,81.0,76.0,29.91,NE,54,1.0,3.0,84,-99.99,,,-99.99,,2016-07-25 08:08:00,
2016-07-25 04:17:00,81.0,76.0,29.91,NE,54,1.0,1.0,84,-99.99,,,-99.99,,2016-07-25 08:17:00,
2016-07-25 04:26:00,80.0,75.0,29.91,NE,51,0.0,3.0,85,-99.99,,,-99.99,,2016-07-25 08:26:00,
2016-07-25 04:38:00,80.0,75.0,29.91,NE,51,1.0,2.0,85,-99.99,,,-99.99,,2016-07-25 08:38:00,
2016-07-25 04:46:00,80.0,75.0,29.91,NE,51,0.0,2.0,86,-99.99,,,-99.99,,2016-07-25 08:46:00,
2016-07-25 05:05:00,80.0,76.0,29.90,NNW,335,1.0,5.0,87,-99.99,,,-99.99,,2016-07-25 09:05:00,
2016-07-25 05:16:00,80.0,76.0,29.89,NE,34,2.0,6.0,87,-99.99,,,-99.99,,2016-07-25 09:16:00,
2016-07-25 05:24:00,80.0,75.0,29.89,North,-9999,-999.9,-999.0,86,-99.99,,,-99.99,,2016-07-25 09:24:00,
2016-07-25 05:43:00,80.0,75.0,29.89,East,80,1.0,5.0,86,-99.99,,,-99.99,,2016-07-25 09:43:00,
2016-07-25 05:53:00,80.0,75.0,29.89,NE,54,2.0,-999.0,86,-99.99,,,-99.99,,2016-07-25 09:53:00,
2016-07-25 06:33:00,80.0,75.0,29.89,ENE,59,-999.9,-999.0,86,-99.99,,,-99.99,,2016-07-25 10:33:00,
2016-07-25 06:43:00,80.0,75.0,29.89,ENE,61,0.0,-999.0,86,-99.99,,,-99.99,,2016-07-25 10:43:00,
2016-07-25 07:16:00,80.0,75.0,29.90,NW,323,0.0,-999.0,86,-99.99,,,-99.99,,2016-07-25 11:16:00,
2016-07-25 07:27:00,80.0,75.0,29.90,NE,55,1.0,-999.0,86,-99.99,,,-99.99,,2016-07-25 11:27:00,
2016-07-25 07:56:00,80.0,76.0,29.91,NE,55,1.0,-999.0,87,-99.99,,,-99.99,,2016-07-25 11:56:00,
2016-07-25 08:14:00,80.0,76.0,29.92,NE,55,1.0,-999.0,87,-99.99,,,-99.99,,2016-07-25 12:14:00,
2016-07-25 08:19:00,80.0,76.0,29.92,NE,55,1.0,2.0,87,-99.99,,,-99.99,,2016-07-25 12:19:00,
2016-07-25 08:26:00,80.0,76.0,29.91,ENE,59,1.0,-999.0,87,-99.99,,,-99.99,,2016-07-25 12:26:00,
2016-07-25 08:49:00,81.0,76.0,29.91,ENE,61,1.0,-999.0,86,-99.99,,,-99.99,,2016-07-25 12:49:00,
2016-07-25 09:19:00,83.0,77.0,29.91,NNW,340,1.0,3.0,83,-99.99,,,-99.99,,2016-07-25 13:19:00,
2016-07-25 09:30:00,83.0,77.0,29.91,South,191,1.0,3.0,82,-99.99,,,-99.99,,2016-07-25 13:30:00,
2016-07-25 09:39:00,84.0,77.0,29.91,SE,125,1.0,3.0,80,-99.99,,,-99.99,,2016-07-25 13:39:00,
2016-07-25 09:48:00,85.0,78.0,29.91,SSE,168,1.0,3.0,79,-99.99,,,-99.99,,2016-07-25 13:48:00,
2016-07-25 10:06:00,85.0,77.0,29.91,SSE,151,2.0,3.0,77,-99.99,,,-99.99,,2016-07-25 14:06:00,
2016-07-25 10:17:00,85.0,77.0,29.91,East,96,2.0,3.0,77,-99.99,,,-99.99,,2016-07-25 14:17:00,
2016-07-25 10:26:00,86.0,78.0,29.91,East,87,3.0,7.0,77,-99.99,,,-99.99,,2016-07-25 14:26:00,
2016-07-25 10:35:00,86.0,78.0,29.91,East,90,2.0,-999.0,77,-99.99,,,-99.99,,2016-07-25 14:35:00,
2016-07-25 10:48:00,87.0,78.0,29.91,SSE,160,2.0,5.0,74,-99.99,,,-99.99,,2016-07-25 14:48:00,
2016-07-25 11:15:00,88.0,78.0,29.91,East,85,2.0,-999.0,73,-99.99,,,-99.99,,2016-07-25 15:15:00,